Time;durP1;ratioP1;P1;durP2;ratioP2;P2;SDS_P1;SDS_P2;PMS_P1;PMS_P2;Temp;Humidity;BMP_temperature;BMP_pressure;BME280_temperature;BME280_humidity;BME280_pressure;Samples;Min_cycle;Max_cycle;Signal;HPM_P1;HPM_P2
2023/02/27 00:02:24;;;;;;;4.40;2.28;;;;;;;-1.31;70.49;98679.78;5064982;28;20052;-34
2023/02/27 00:04:50;;;;;;;3.85;1.90;;;;;;;-1.33;70.59;98669.56;5063849;28;20089;-32
2023/02/27 00:07:16;;;;;;;3.40;1.83;;;;;;;-1.32;70.29;98689.13;5067944;28;20520;-34
2023/02/27 00:09:43;;;;;;;3.42;1.75;;;;;;;-1.35;70.17;98691.66;5066484;28;20078;-34
2023/02/27 00:12:10;;;;;;;2.42;1.70;;;;;;;-1.39;70.01;98684.03;5066550;28;20040;-35
2023/02/27 00:14:36;;;;;;;5.43;1.90;;;;;;;-1.34;69.70;98690.81;5082717;28;20081;-35
2023/02/27 00:17:02;;;;;;;2.75;1.65;;;;;;;-1.55;69.81;98667.94;5066628;28;20048;-44
2023/02/27 00:19:28;;;;;;;5.60;2.15;;;;;;;-1.30;69.29;98686.53;5064813;28;20465;-36
2023/02/27 00:21:54;;;;;;;3.05;1.92;;;;;;;-1.33;69.52;98704.41;5064043;28;20032;-35
2023/02/27 00:24:21;;;;;;;3.17;1.88;;;;;;;-1.34;69.74;98705.25;5066432;28;20049;-34
2023/02/27 00:26:47;;;;;;;2.17;1.30;;;;;;;-1.32;69.69;98711.22;5067308;28;20054;-34
2023/02/27 00:29:13;;;;;;;5.68;2.30;;;;;;;-1.47;69.60;98707.00;5067758;28;20128;-34
2023/02/27 00:31:39;;;;;;;3.28;1.83;;;;;;;-1.46;69.64;98711.22;5066570;28;20045;-33
2023/02/27 00:34:05;;;;;;;2.88;1.98;;;;;;;-1.47;69.65;98718.88;5101854;27;20040;-34
2023/02/27 00:36:31;;;;;;;7.10;2.60;;;;;;;-1.52;69.80;98711.25;5071093;28;20052;-34
2023/02/27 00:38:57;;;;;;;4.40;2.05;;;;;;;-1.44;69.67;98726.53;5036447;28;20047;-34
2023/02/27 00:41:24;;;;;;;2.63;1.75;;;;;;;-1.63;69.10;98689.19;5053702;28;20098;-35
2023/02/27 00:43:50;;;;;;;4.53;2.33;;;;;;;-1.50;69.29;98724.81;5069696;28;20044;-34
2023/02/27 00:46:18;;;;;;;5.03;3.10;;;;;;;-1.70;69.36;98678.16;5053367;28;20699;-34
2023/02/27 00:48:44;;;;;;;5.72;2.80;;;;;;;-1.58;68.95;98705.31;5068260;28;20417;-35
2023/02/27 00:51:10;;;;;;;4.38;2.70;;;;;;;-1.42;68.62;98735.88;5069433;28;20075;-35
2023/02/27 00:53:36;;;;;;;5.60;2.63;;;;;;;-1.41;68.40;98735.00;5067904;28;20414;-35
2023/02/27 00:56:02;;;;;;;3.97;2.40;;;;;;;-1.38;68.63;98735.00;5068221;28;20151;-34
2023/02/27 00:58:28;;;;;;;6.28;2.88;;;;;;;-1.28;68.09;98743.47;5085890;28;20072;-35
2023/02/27 01:00:53;;;;;;;4.15;2.65;;;;;;;-1.32;68.08;98736.69;5086721;28;20507;-34
2023/02/27 01:03:19;;;;;;;4.20;2.30;;;;;;;-1.34;67.76;98751.13;5070509;28;20047;-34
2023/02/27 01:05:45;;;;;;;4.53;1.73;;;;;;;-1.35;67.87;98770.69;5085812;28;20044;-34
2023/02/27 01:08:11;;;;;;;3.95;1.98;;;;;;;-1.39;67.90;98753.69;5069617;28;20036;-34
2023/02/27 01:10:37;;;;;;;4.20;2.30;;;;;;;-1.52;67.73;98725.69;5048948;28;20520;-35
2023/02/27 01:13:05;;;;;;;4.78;2.35;;;;;;;-1.41;67.74;98762.19;5050794;28;20054;-35
2023/02/27 01:15:32;;;;;;;4.38;2.22;;;;;;;-1.42;67.98;98760.50;5069056;28;20118;-35
2023/02/27 01:17:58;;;;;;;5.45;2.17;;;;;;;-1.46;68.07;98766.44;5068784;28;20044;-34
2023/02/27 01:20:24;;;;;;;3.10;1.85;;;;;;;-1.57;68.08;98770.72;5081038;28;20072;-34
2023/02/27 01:22:50;;;;;;;4.25;2.15;;;;;;;-1.68;68.59;98764.78;5050646;28;20053;-34
2023/02/27 01:25:16;;;;;;;4.18;2.22;;;;;;;-1.67;68.32;98781.78;5082941;28;20040;-33
2023/02/27 01:27:42;;;;;;;3.95;1.92;;;;;;;-1.70;68.49;98777.50;5066677;28;20052;-33
2023/02/27 01:30:10;;;;;;;4.93;2.13;;;;;;;-1.86;68.23;98752.88;5070446;28;20507;-34
2023/02/27 01:32:37;;;;;;;5.15;2.35;;;;;;;-1.65;68.12;98790.25;5068665;28;20045;-33
2023/02/27 01:35:03;;;;;;;5.38;2.80;;;;;;;-1.64;67.91;98787.72;5051447;28;20047;-44
2023/02/27 01:37:29;;;;;;;5.20;3.10;;;;;;;-1.64;68.01;98797.91;5068863;28;20420;-36
2023/02/27 01:39:55;;;;;;;6.18;2.45;;;;;;;-1.76;67.73;98768.16;5051631;28;20471;-35
2023/02/27 01:42:25;;;;;;;3.38;1.85;;;;;;;-1.65;67.75;98815.72;5052438;28;20449;-33
2023/02/27 01:45:09;;;;;;;5.00;2.78;;;;;;;-1.66;67.55;98802.13;5067501;28;20041;-33
2023/02/27 01:47:41;;;;;;;6.68;3.15;;;;;;;-1.73;67.44;98808.91;5068238;28;20842;-35
2023/02/27 01:50:08;;;;;;;3.25;1.77;;;;;;;-1.83;67.15;98794.47;5051216;28;20041;-35
2023/02/27 01:52:36;;;;;;;6.05;3.15;;;;;;;-1.77;67.65;98827.59;5064833;28;20032;-34
2023/02/27 01:55:03;;;;;;;5.43;2.80;;;;;;;-1.98;67.55;98793.63;5050077;28;20503;-36
2023/02/27 01:57:30;;;;;;;4.93;2.78;;;;;;;-1.72;67.77;98831.00;5051944;28;20047;-34
2023/02/27 01:59:56;;;;;;;2.28;1.58;;;;;;;-1.71;67.44;98844.59;5034684;28;20040;-35
2023/02/27 02:02:27;;;;;;;8.38;3.35;;;;;;;-1.82;67.75;98821.66;5019001;28;20041;-34
2023/02/27 02:04:55;;;;;;;2.45;1.80;;;;;;;-1.64;67.53;98841.22;5050873;28;20052;-34
2023/02/27 02:07:21;;;;;;;5.53;3.13;;;;;;;-1.61;67.68;98856.50;5067741;28;20043;-34
2023/02/27 02:09:50;;;;;;;6.78;3.00;;;;;;;-1.48;67.86;98863.31;5067359;28;20923;-35
2023/02/27 02:12:18;;;;;;;5.55;2.90;;;;;;;-1.43;67.52;98870.97;5051934;28;20097;-34
2023/02/27 02:14:44;;;;;;;7.22;2.60;;;;;;;-1.42;67.25;98870.13;5018070;28;20127;-35
2023/02/27 02:17:23;;;;;;;4.07;2.17;;;;;;;-1.59;67.33;98872.66;5068270;28;20123;-35
2023/02/27 02:20:07;;;;;;;6.25;3.03;;;;;;;-1.61;67.46;98881.13;5051666;28;20047;-34
2023/02/27 02:23:04;;;;;;;6.13;3.13;;;;;;;-1.62;67.69;98893.00;5066361;28;20097;-36
2023/02/27 02:25:51;;;;;;;5.00;2.88;;;;;;;-1.61;67.38;98904.06;5066978;28;20040;-34
2023/02/27 02:28:29;;;;;;;4.47;2.28;;;;;;;-1.72;67.52;98897.25;5051340;28;20163;-35
2023/02/27 02:31:22;;;;;;;5.88;2.80;;;;;;;-1.80;67.55;98914.22;5067438;28;20054;-35
2023/02/27 02:34:06;;;;;;;5.78;2.97;;;;;;;-1.68;67.76;98907.47;5069099;28;20114;-33
2023/02/27 02:36:59;;;;;;;4.32;2.20;;;;;;;-1.81;67.42;98896.38;5067556;28;20048;-43
2023/02/27 02:40:06;;;;;;;5.57;3.03;;;;;;;-1.74;67.74;98924.44;5064681;28;20186;-33
2023/02/27 02:42:48;;;;;;;5.65;3.08;;;;;;;-1.64;67.74;98916.81;5033656;28;20062;-34
2023/02/27 02:45:47;;;;;;;7.82;2.47;;;;;;;-1.80;67.81;98908.28;5069004;28;20594;-34
2023/02/27 02:48:21;;;;;;;5.47;2.83;;;;;;;-1.95;67.73;98901.44;5031209;28;20052;-33
2023/02/27 02:51:04;;;;;;;4.45;2.45;;;;;;;-1.78;67.93;98926.97;5058687;28;20051;-34
2023/02/27 02:53:38;;;;;;;7.22;3.70;;;;;;;-1.76;68.11;98945.66;5050029;28;20040;-34
2023/02/27 02:56:25;;;;;;;6.07;2.50;;;;;;;-1.68;68.10;98960.97;5050927;28;20523;-34
2023/02/27 02:59:13;;;;;;;4.50;2.53;;;;;;;-1.76;68.17;98960.94;5045666;28;20570;-35
2023/02/27 03:01:47;;;;;;;4.68;2.70;;;;;;;-1.63;67.88;98967.78;5070940;28;20044;-34
2023/02/27 03:04:26;;;;;;;9.63;3.10;;;;;;;-1.66;68.11;98961.81;5066415;28;20036;-34
2023/02/27 03:07:02;;;;;;;6.63;2.97;;;;;;;-1.59;67.99;98974.59;5080624;28;20047;-35
2023/02/27 03:09:36;;;;;;;6.50;3.72;;;;;;;-1.52;67.93;98973.75;5046244;28;20068;-34
2023/02/27 03:12:04;;;;;;;5.82;1.98;;;;;;;-1.53;67.65;99000.09;5032286;28;20066;-36
2023/02/27 03:14:38;;;;;;;4.82;3.00;;;;;;;-1.71;67.83;98987.28;5067225;28;20036;-36
2023/02/27 03:17:09;;;;;;;4.20;2.33;;;;;;;-1.70;68.06;99006.81;5050306;28;20048;-36
2023/02/27 03:19:52;;;;;;;5.22;2.80;;;;;;;-1.79;67.97;99002.56;5047616;28;20075;-34
2023/02/27 03:22:31;;;;;;;7.65;3.45;;;;;;;-1.69;68.63;99011.06;5063345;28;20460;-34
2023/02/27 03:24:59;;;;;;;6.43;3.70;;;;;;;-1.62;68.10;99002.59;5030667;28;20041;-34
2023/02/27 03:27:31;;;;;;;9.23;3.42;;;;;;;-1.50;68.30;99009.41;5071574;28;20048;-35
2023/02/27 03:30:06;;;;;;;6.38;3.85;;;;;;;-1.24;67.95;99010.34;5066546;28;20462;-34
2023/02/27 03:32:38;;;;;;;5.32;3.28;;;;;;;-1.20;67.73;99013.75;5047465;28;20041;-35
2023/02/27 03:35:06;;;;;;;6.22;2.75;;;;;;;-1.29;67.58;99009.47;5047460;28;20127;-35
2023/02/27 03:38:00;;;;;;;6.47;3.30;;;;;;;-1.33;67.91;99023.06;5047882;28;20428;-35
2023/02/27 03:40:46;;;;;;;6.68;3.10;;;;;;;-1.22;67.21;99025.66;5048653;28;20055;-34
2023/02/27 03:43:27;;;;;;;7.45;3.90;;;;;;;-1.10;67.53;99030.78;5062950;28;20048;-35
2023/02/27 03:46:06;;;;;;;5.03;3.20;;;;;;;-1.07;67.03;99040.97;5066294;28;20082;-36
2023/02/27 03:48:32;;;;;;;6.88;3.58;;;;;;;-0.97;67.15;99051.19;5049746;28;20040;-35
2023/02/27 03:50:59;;;;;;;6.15;2.75;;;;;;;-0.91;67.04;99047.81;5065957;28;20130;-35
2023/02/27 03:54:05;;;;;;;7.30;3.70;;;;;;;-0.96;66.92;99063.09;5029666;28;20112;-33
2023/02/27 03:56:40;;;;;;;5.75;3.28;;;;;;;-1.06;66.79;99060.53;5063165;28;20049;-35
2023/02/27 03:59:06;;;;;;;7.00;3.22;;;;;;;-1.50;66.60;99020.47;5074898;28;20431;-35
2023/02/27 04:01:33;;;;;;;5.90;3.45;;;;;;;-1.49;66.65;99045.13;5067114;28;20044;-35
2023/02/27 04:04:04;;;;;;;7.57;2.47;;;;;;;-1.51;66.92;99054.44;5058456;28;20048;-34
2023/02/27 04:09:45;;;;;;;;;;;;;;;-1.34;67.43;99088.50;5064551;28;20571;-35
2023/02/27 04:12:35;;;;;;;8.57;3.75;;;;;;;-1.32;67.46;99086.81;5078099;28;19971;-34
2023/02/27 04:15:11;;;;;;;6.50;2.83;;;;;;;-1.55;66.88;99041.69;5070823;28;20044;-35
2023/02/27 04:17:54;;;;;;;7.60;3.63;;;;;;;-1.45;67.20;99105.44;5069309;28;20055;-35
2023/02/27 04:20:20;;;;;;;5.68;3.10;;;;;;;-1.45;67.21;99097.81;5069393;28;20051;-37
2023/02/27 04:22:50;;;;;;;11.65;3.10;;;;;;;-1.59;67.49;99096.03;5070927;28;20044;-36
2023/02/27 04:25:49;;;;;;;3.50;1.88;;;;;;;-1.52;67.73;99110.53;5069736;28;20040;-35
2023/02/27 04:28:26;;;;;;;6.53;3.35;;;;;;;-1.56;68.27;99112.19;5054211;28;20040;-37
2023/02/27 04:31:21;;;;;;;8.30;3.20;;;;;;;-1.46;67.81;99116.47;5070197;28;20043;-37
2023/02/27 04:34:00;;;;;;;7.85;3.53;;;;;;;-1.52;67.83;99116.47;5069538;28;20071;-36
2023/02/27 04:36:55;;;;;;;7.63;3.70;;;;;;;-1.41;68.00;99126.69;5051284;28;20044;-37
2023/02/27 04:39:45;;;;;;;7.82;3.42;;;;;;;-1.26;67.59;99131.88;5066196;28;20105;-36
2023/02/27 04:42:15;;;;;;;7.80;3.75;;;;;;;-1.31;67.51;99143.78;5049828;28;20119;-36
2023/02/27 04:44:42;;;;;;;8.20;3.70;;;;;;;-1.78;67.57;99077.28;5069450;28;20174;-36
2023/02/27 04:47:09;;;;;;;9.50;4.32;;;;;;;-1.34;67.57;99161.59;5069801;28;20067;-37
2023/02/27 04:49:40;;;;;;;7.97;3.72;;;;;;;-1.47;67.45;99159.84;5052473;28;20412;-37
2023/02/27 04:52:37;;;;;;;8.35;3.53;;;;;;;-1.48;67.74;99150.47;5051101;28;20036;-36
2023/02/27 04:55:16;;;;;;;6.07;3.13;;;;;;;-1.55;67.88;99161.47;5069936;28;20044;-37
2023/02/27 04:57:53;;;;;;;;;;;;;;;-1.49;67.97;99167.47;5052403;28;20036;-37
2023/02/27 05:00:21;;;;;;;8.52;4.30;;;;;;;-1.68;68.16;99137.63;5069776;28;19923;-37
2023/02/27 05:02:51;;;;;;;10.32;4.00;;;;;;;-1.63;67.89;99148.69;5068185;28;20045;-37
2023/02/27 05:05:21;;;;;;;8.75;4.10;;;;;;;-1.56;67.90;99175.91;5068408;28;20044;-36
2023/02/27 05:07:51;;;;;;;5.53;2.90;;;;;;;-1.65;68.21;99178.41;5050669;28;20098;-37
2023/02/27 05:10:32;;;;;;;8.52;4.55;;;;;;;-1.78;68.64;99174.91;5069407;28;20657;-37
2023/02/27 05:13:03;;;;;;;8.13;4.22;;;;;;;-1.82;68.42;99163.00;5076567;28;20051;-37
2023/02/27 05:15:34;;;;;;;7.45;3.95;;;;;;;-1.64;68.62;99195.41;5060353;28;20451;-38
2023/02/27 05:18:05;;;;;;;8.07;2.85;;;;;;;-1.57;68.56;99188.66;5069204;28;20040;-37
2023/02/27 05:20:40;;;;;;;7.25;2.83;;;;;;;-1.72;68.54;99197.03;5049496;28;20044;-38
2023/02/27 05:23:32;;;;;;;7.50;3.28;;;;;;;-1.78;68.78;99195.31;5071952;28;20071;-39
2023/02/27 05:26:09;;;;;;;8.25;3.63;;;;;;;-2.04;69.08;99166.25;5061579;28;20095;-38
2023/02/27 05:29:19;;;;;;;7.28;3.92;;;;;;;-1.74;68.97;99198.75;5070429;28;20384;-37
2023/02/27 05:31:47;;;;;;;10.30;4.13;;;;;;;-1.65;68.92;99195.41;5072576;28;20068;-38
2023/02/27 05:34:26;;;;;;;6.07;3.22;;;;;;;-1.62;68.79;99208.16;5071964;28;20037;-37
2023/02/27 05:36:57;;;;;;;9.63;2.75;;;;;;;-1.65;68.74;99210.69;5077383;28;20040;-37
2023/02/27 05:39:26;;;;;;;7.07;3.63;;;;;;;-1.68;68.99;99203.03;5069485;28;20032;-42
2023/02/27 05:42:02;;;;;;;6.10;3.33;;;;;;;-1.55;68.74;99218.41;5080650;28;20036;-37
2023/02/27 05:44:36;;;;;;;6.65;3.47;;;;;;;-1.83;68.80;99191.00;5069635;28;20526;-36
2023/02/27 05:47:09;;;;;;;8.38;4.45;;;;;;;-1.99;69.14;99189.22;5052318;28;20051;-36
2023/02/27 05:49:54;;;;;;;7.55;3.72;;;;;;;-1.82;69.31;99219.06;5085577;28;20048;-36
2023/02/27 05:52:24;;;;;;;9.18;3.90;;;;;;;-1.60;69.40;99231.94;5035772;28;20143;-36
2023/02/27 05:55:01;;;;;;;7.00;3.10;;;;;;;-1.55;69.07;99233.69;5050086;28;20158;-36
2023/02/27 05:57:41;;;;;;;8.73;3.55;;;;;;;-1.69;68.95;99229.34;5089096;28;20036;-36
2023/02/27 06:00:26;;;;;;;8.57;3.40;;;;;;;-1.69;69.21;99242.94;5073388;28;20062;-37
2023/02/27 06:02:52;;;;;;;4.65;2.80;;;;;;;-1.78;68.97;99250.53;5062081;28;20136;-37
2023/02/27 06:05:19;;;;;;;7.35;2.85;;;;;;;-1.82;69.37;99256.41;5069490;28;20094;-37
2023/02/27 06:07:45;;;;;;;7.22;3.35;;;;;;;-1.84;69.25;99250.47;5068534;28;20520;-36
2023/02/27 06:10:16;;;;;;;4.13;2.75;;;;;;;-1.81;69.45;99255.56;5068253;28;20106;-37
2023/02/27 06:12:42;;;;;;;7.53;3.78;;;;;;;-1.78;69.31;99253.06;5051764;28;20078;-37
2023/02/27 06:15:08;;;;;;;12.23;4.20;;;;;;;-1.67;69.16;99246.34;5066899;28;20090;-36
2023/02/27 06:17:34;;;;;;;9.07;3.80;;;;;;;-1.54;68.95;99271.09;5066400;28;20808;-37
2023/02/27 06:20:00;;;;;;;7.22;3.35;;;;;;;-1.60;69.03;99254.88;5066222;28;20499;-37
2023/02/27 06:22:26;;;;;;;8.63;3.92;;;;;;;-1.56;68.87;99274.44;5066906;28;20032;-36
2023/02/27 06:24:53;;;;;;;8.13;4.07;;;;;;;-1.47;69.14;99272.84;5078759;28;20031;-37
2023/02/27 06:27:19;;;;;;;8.00;3.95;;;;;;;-1.36;68.70;99281.41;5046800;28;20041;-35
2023/02/27 06:29:46;;;;;;;6.30;3.00;;;;;;;-1.22;68.86;99280.66;5063272;28;20044;-36
2023/02/27 06:32:12;;;;;;;7.13;3.58;;;;;;;-1.24;68.30;99272.97;5069352;28;20384;-37
2023/02/27 06:34:37;;;;;;;5.63;2.13;;;;;;;-1.35;68.00;99275.44;5068940;28;20037;-37
2023/02/27 06:37:03;;;;;;;6.93;3.30;;;;;;;-1.37;68.12;99286.50;5069230;28;20066;-37
2023/02/27 06:39:29;;;;;;;7.13;3.70;;;;;;;-1.34;68.12;99282.28;5067572;28;20044;-37
2023/02/27 06:41:55;;;;;;;12.57;3.63;;;;;;;-1.31;68.21;99266.16;5067836;28;20515;-36
2023/02/27 06:44:21;;;;;;;6.57;3.55;;;;;;;-1.36;68.03;99263.53;5068739;28;20044;-37
2023/02/27 06:46:46;;;;;;;7.03;3.90;;;;;;;-1.25;67.95;99288.25;5051209;28;20194;-38
2023/02/27 06:49:12;;;;;;;6.03;2.95;;;;;;;-1.11;67.70;99296.88;5068970;28;20131;-38
2023/02/27 06:51:38;;;;;;;5.05;3.08;;;;;;;-1.08;67.55;99290.06;5067637;28;20585;-36
2023/02/27 06:54:04;;;;;;;7.55;3.42;;;;;;;-1.18;67.36;99293.41;5066938;28;20118;-35
2023/02/27 06:56:30;;;;;;;5.80;3.42;;;;;;;-1.12;67.87;99305.34;5084529;28;20040;-37
2023/02/27 06:58:56;;;;;;;6.25;3.28;;;;;;;-1.14;67.47;99300.22;5068864;28;20040;-38
2023/02/27 07:01:23;;;;;;;11.65;3.80;;;;;;;-1.07;67.36;99316.44;5067238;28;20039;-36
2023/02/27 07:03:49;;;;;;;7.18;3.42;;;;;;;-1.08;67.33;99318.13;5068350;28;20178;-36
2023/02/27 07:06:15;;;;;;;7.07;3.45;;;;;;;-1.15;67.46;99325.75;5067087;28;20044;-39
2023/02/27 07:08:41;;;;;;;4.60;2.08;;;;;;;-1.46;67.15;99288.97;5068262;28;20048;-38
2023/02/27 07:11:07;;;;;;;5.88;2.92;;;;;;;-1.43;67.62;99325.56;5068291;28;20052;-36
2023/02/27 07:13:33;;;;;;;6.88;3.33;;;;;;;-1.47;67.76;99334.03;5068305;28;20424;-37
2023/02/27 07:15:59;;;;;;;4.40;2.45;;;;;;;-1.30;67.61;99334.13;5068373;28;20142;-36
2023/02/27 07:18:25;;;;;;;6.50;3.45;;;;;;;-1.24;67.53;99344.38;5068391;28;20143;-37
2023/02/27 07:20:53;;;;;;;6.88;3.17;;;;;;;-1.07;67.41;99341.94;5067978;28;20115;-37
2023/02/27 07:23:20;;;;;;;11.53;3.03;;;;;;;-1.17;67.09;99342.72;5066756;28;20052;-37
2023/02/27 07:25:47;;;;;;;5.57;2.55;;;;;;;-1.17;67.12;99342.72;5067610;28;20040;-37
2023/02/27 07:28:13;;;;;;;5.40;2.90;;;;;;;-1.12;66.86;99349.56;5067953;28;20068;-37
2023/02/27 07:30:40;;;;;;;5.78;3.10;;;;;;;-0.96;66.99;99353.06;5050479;28;20051;-38
2023/02/27 07:33:06;;;;;;;5.45;3.22;;;;;;;-1.14;66.67;99322.34;5066420;28;20476;-38
2023/02/27 07:35:32;;;;;;;7.85;3.63;;;;;;;-1.16;66.52;99330.00;5066914;28;20044;-37
2023/02/27 07:37:58;;;;;;;10.05;3.47;;;;;;;-0.90;66.44;99358.22;5066463;28;20048;-36
2023/02/27 07:40:24;;;;;;;5.97;3.13;;;;;;;-0.73;66.72;99369.34;5050524;28;20048;-36
2023/02/27 07:42:50;;;;;;;5.50;3.00;;;;;;;-0.97;66.37;99338.59;5067190;28;20049;-37
2023/02/27 07:45:19;;;;;;;9.27;3.20;;;;;;;-0.67;66.26;99376.19;5066697;28;20698;-37
2023/02/27 07:47:45;;;;;;;5.07;2.85;;;;;;;-0.60;66.10;99381.38;5050475;28;20045;-37
2023/02/27 07:50:12;;;;;;;5.05;2.92;;;;;;;-0.76;66.00;99337.88;5067931;28;20045;-38
2023/02/27 07:52:44;;;;;;;7.93;3.13;;;;;;;-0.40;65.54;99380.59;5068236;28;20151;-36
2023/02/27 07:55:12;;;;;;;6.85;3.30;;;;;;;-0.56;65.32;99354.13;5066377;28;20075;-36
2023/02/27 07:57:38;;;;;;;5.10;2.85;;;;;;;-0.61;65.37;99368.59;5067920;28;20047;-37
2023/02/27 08:00:05;;;;;;;5.45;3.15;;;;;;;-0.58;65.64;99389.03;5067708;28;20036;-36
2023/02/27 08:02:38;;;;;;;6.30;3.03;;;;;;;-0.49;65.68;99379.72;5066876;28;20037;-35
2023/02/27 08:05:05;;;;;;;7.72;2.92;;;;;;;-0.61;65.53;99363.47;5050205;28;20062;-37
2023/02/27 08:07:31;;;;;;;5.43;2.88;;;;;;;-0.64;65.57;99346.47;5067769;28;20886;-37
2023/02/27 08:09:57;;;;;;;4.80;2.85;;;;;;;-0.24;64.96;99393.44;5065713;28;20143;-37
2023/02/27 08:12:23;;;;;;;7.45;2.97;;;;;;;-0.42;65.13;99372.94;5066554;28;20526;-38
2023/02/27 08:14:49;;;;;;;6.10;2.90;;;;;;;-0.25;64.89;99370.44;5067813;28;20028;-37
2023/02/27 08:17:15;;;;;;;4.43;1.90;;;;;;;0.05;65.04;99415.72;5049635;28;20727;-36
2023/02/27 08:19:41;;;;;;;3.47;1.95;;;;;;;-0.16;64.76;99409.63;5067253;28;20047;-37
2023/02/27 08:22:07;;;;;;;5.28;2.42;;;;;;;-0.32;64.44;99407.03;5049525;28;20106;-37
2023/02/27 08:24:33;;;;;;;4.38;2.65;;;;;;;-0.26;64.58;99407.91;5065652;28;20075;-37
2023/02/27 08:26:58;;;;;;;6.03;1.92;;;;;;;-0.25;64.26;99407.06;5066276;28;20400;-37
2023/02/27 08:29:25;;;;;;;4.50;2.20;;;;;;;-0.30;64.50;99420.66;5066395;28;20098;-36
2023/02/27 08:31:51;;;;;;;6.75;2.58;;;;;;;-0.20;64.15;99409.63;5065843;28;20135;-37
2023/02/27 08:34:17;;;;;;;5.47;2.63;;;;;;;-0.09;64.07;99426.72;5066107;28;20530;-37
2023/02/27 08:36:43;;;;;;;5.80;2.45;;;;;;;-0.09;63.68;99429.25;5067466;28;20040;-36
2023/02/27 08:39:09;;;;;;;6.00;2.65;;;;;;;-0.25;63.36;99419.81;5067463;28;20512;-36
2023/02/27 08:41:35;;;;;;;5.18;2.40;;;;;;;-0.27;63.38;99426.66;5066280;28;20040;-37
2023/02/27 08:44:02;;;;;;;4.88;2.83;;;;;;;-0.18;63.48;99426.69;5049726;28;20076;-36
2023/02/27 08:46:28;;;;;;;4.35;2.85;;;;;;;-0.01;63.16;99435.28;5066331;28;20048;-37
2023/02/27 08:48:53;;;;;;;4.68;2.42;;;;;;;0.12;62.86;99437.84;5065513;28;20069;-36
2023/02/27 08:51:20;;;;;;;6.07;2.53;;;;;;;0.02;62.79;99449.75;5066827;28;20527;-38
2023/02/27 08:53:45;;;;;;;3.75;2.17;;;;;;;0.08;63.03;99443.81;5082556;28;20036;-36
2023/02/27 08:56:11;;;;;;;3.95;2.38;;;;;;;0.05;62.66;99431.91;5070816;28;20055;-37
2023/02/27 08:58:38;;;;;;;5.47;2.67;;;;;;;0.04;62.77;99445.53;5070812;28;20032;-36
2023/02/27 09:01:04;;;;;;;5.20;2.67;;;;;;;0.15;63.09;99436.19;5053066;28;20487;-36
2023/02/27 09:03:30;;;;;;;5.00;2.53;;;;;;;0.18;62.44;99436.19;5070183;28;20036;-38
2023/02/27 09:05:56;;;;;;;5.53;2.08;;;;;;;0.13;62.21;99440.44;5053032;28;20359;-37
2023/02/27 09:08:22;;;;;;;4.28;2.30;;;;;;;0.05;62.37;99446.38;5070415;28;20613;-36
2023/02/27 09:10:48;;;;;;;4.35;2.17;;;;;;;0.20;62.02;99454.09;5070360;28;20076;-36
2023/02/27 09:13:14;;;;;;;6.05;3.13;;;;;;;0.22;62.23;99453.22;5070769;28;20198;-37
2023/02/27 09:15:40;;;;;;;2.65;1.75;;;;;;;0.16;62.00;99431.94;5069367;28;20073;-37
2023/02/27 09:18:06;;;;;;;4.15;2.50;;;;;;;0.31;61.90;99463.50;5070187;28;20489;-38
2023/02/27 09:20:36;;;;;;;4.65;2.67;;;;;;;0.27;61.26;99464.31;5070607;28;20046;-37
2023/02/27 09:23:03;;;;;;;4.28;2.65;;;;;;;0.34;60.97;99478.00;5068874;28;20051;-37
2023/02/27 09:25:29;;;;;;;3.30;1.92;;;;;;;0.21;60.80;99436.19;5070399;28;20503;-37
2023/02/27 09:27:55;;;;;;;6.00;2.85;;;;;;;0.41;60.92;99483.16;5068826;28;20338;-37
2023/02/27 09:30:21;;;;;;;5.13;3.28;;;;;;;0.48;60.61;99488.25;5070514;28;20257;-38
2023/02/27 09:32:47;;;;;;;4.50;2.35;;;;;;;0.31;60.50;99495.88;5048347;28;20102;-37
2023/02/27 09:35:14;;;;;;;4.22;2.05;;;;;;;0.04;60.43;99501.75;5069020;28;20503;-37
2023/02/27 09:37:41;;;;;;;3.75;1.85;;;;;;;0.03;60.40;99504.28;5068637;28;20507;-37
2023/02/27 09:40:18;;;;;;;4.65;2.00;;;;;;;-0.09;60.13;99510.16;5068981;28;20522;-36
2023/02/27 09:42:46;;;;;;;3.75;2.22;;;;;;;-0.06;60.11;99510.22;5068682;28;20087;-35
2023/02/27 09:45:23;;;;;;;3.55;1.98;;;;;;;0.18;60.17;99512.00;5070195;28;20075;-37
2023/02/27 09:47:53;;;;;;;4.25;2.30;;;;;;;0.17;59.94;99515.41;5068977;28;20488;-37
2023/02/27 09:50:48;;;;;;;4.07;1.90;;;;;;;0.42;59.83;99510.41;5068291;28;20077;-36
2023/02/27 09:53:37;;;;;;;9.13;2.72;;;;;;;0.32;59.33;99512.91;5068208;28;20063;-37
2023/02/27 09:56:35;;;;;;;4.80;2.35;;;;;;;0.34;59.79;99509.53;5052157;28;20032;-36
2023/02/27 09:59:16;;;;;;;3.88;2.00;;;;;;;0.15;60.10;99509.44;5048203;28;20133;-37
2023/02/27 10:02:18;;;;;;;4.88;2.42;;;;;;;0.25;60.29;99509.50;5069313;28;20135;-37
2023/02/27 10:04:59;;;;;;;3.72;1.80;;;;;;;0.42;59.63;99510.41;5036988;28;20049;-37
2023/02/27 10:08:15;;;;;;;4.03;2.03;;;;;;;0.59;59.72;99502.78;5050528;28;20117;-39
2023/02/27 10:10:59;;;;;;;5.38;2.63;;;;;;;0.75;58.58;99524.13;5051607;28;20122;-37
2023/02/27 10:13:38;;;;;;;3.75;2.05;;;;;;;1.03;58.25;99512.25;5084856;28;20044;-37
2023/02/27 10:16:05;;;;;;;4.18;2.30;;;;;;;1.27;57.95;99523.34;5069839;28;20048;-35
2023/02/27 10:18:36;;;;;;;5.47;2.58;;;;;;;1.58;57.77;99524.19;5068895;28;20040;-36
2023/02/27 10:21:06;;;;;;;4.65;2.50;;;;;;;1.78;57.84;99520.78;5051272;28;20062;-36
2023/02/27 10:23:40;;;;;;;7.75;2.28;;;;;;;1.75;56.74;99526.75;5067221;28;20086;-36
2023/02/27 10:26:25;;;;;;;3.35;2.08;;;;;;;1.46;56.06;99536.19;5051212;28;20044;-37
2023/02/27 10:28:51;;;;;;;3.33;1.60;;;;;;;0.95;56.47;99542.09;5067413;28;20050;-37
2023/02/27 10:31:26;;;;;;;3.35;2.28;;;;;;;0.54;57.44;99535.16;5068978;28;20487;-35
2023/02/27 10:33:52;;;;;;;4.90;2.25;;;;;;;0.61;57.29;99536.91;5066817;28;20067;-37
2023/02/27 10:36:20;;;;;;;7.78;2.85;;;;;;;0.77;57.43;99543.78;5069172;28;20044;-36
2023/02/27 10:38:57;;;;;;;3.97;1.60;;;;;;;0.81;57.29;99534.38;5067393;28;20040;-37
2023/02/27 10:41:23;;;;;;;4.50;2.42;;;;;;;0.81;57.21;99545.47;5051161;28;20094;-37
2023/02/27 10:43:55;;;;;;;3.03;1.50;;;;;;;0.63;57.94;99549.72;5067476;28;20040;-38
2023/02/27 10:46:25;;;;;;;4.60;2.67;;;;;;;0.43;58.46;99545.34;5067730;28;20040;-37
2023/02/27 10:48:51;;;;;;;5.18;2.30;;;;;;;0.34;59.09;99552.13;5067708;28;20048;-37
2023/02/27 10:51:20;;;;;;;5.25;2.33;;;;;;;0.39;59.51;99564.09;5069067;28;20044;-37
2023/02/27 10:53:46;;;;;;;4.30;2.35;;;;;;;0.42;60.07;99530.84;5067437;28;20135;-35
2023/02/27 10:56:21;;;;;;;5.03;2.67;;;;;;;0.71;60.13;99565.91;5069128;28;20109;-37
2023/02/27 10:59:02;;;;;;;4.10;2.10;;;;;;;1.10;60.65;99575.41;5068773;28;20052;-36
2023/02/27 11:01:43;;;;;;;6.07;2.97;;;;;;;1.39;60.60;99552.38;5067475;28;20046;-37
2023/02/27 11:04:10;;;;;;;5.80;2.60;;;;;;;1.69;60.98;99576.28;5068628;28;20044;-37
2023/02/27 11:06:36;;;;;;;5.65;2.30;;;;;;;1.59;60.92;99586.53;5067394;28;20531;-36
2023/02/27 11:09:21;;;;;;;4.38;2.58;;;;;;;1.17;61.72;99584.78;5067702;28;20044;-37
2023/02/27 11:11:48;;;;;;;3.67;2.05;;;;;;;1.03;61.88;99591.59;5068860;28;20037;-37
2023/02/27 11:14:34;;;;;;;4.32;2.58;;;;;;;0.88;62.95;99584.75;5068626;28;20036;-37
2023/02/27 11:17:01;;;;;;;4.82;2.78;;;;;;;0.96;63.46;99589.88;5066798;28;20040;-37
2023/02/27 11:19:36;;;;;;;5.40;2.78;;;;;;;1.01;63.63;99591.59;5067249;28;20054;-38
2023/02/27 11:22:15;;;;;;;6.80;2.35;;;;;;;1.08;63.74;99601.00;5029965;28;20131;-37
2023/02/27 11:24:42;;;;;;;4.35;2.50;;;;;;;1.12;63.74;99599.28;5063777;28;20545;-35
2023/02/27 11:27:27;;;;;;;6.22;2.63;;;;;;;1.12;63.61;99607.84;5068538;28;20052;-37
2023/02/27 11:29:59;;;;;;;6.30;3.13;;;;;;;1.09;63.00;99606.97;5068116;28;20059;-36
2023/02/27 11:32:34;;;;;;;2.92;1.83;;;;;;;0.83;62.42;99602.66;5067931;28;20121;-37
2023/02/27 11:35:00;;;;;;;3.00;2.00;;;;;;;0.72;62.32;99611.13;5067967;28;20047;-38
2023/02/27 11:37:26;;;;;;;4.70;2.40;;;;;;;0.65;62.14;99607.69;5050081;28;20124;-37
2023/02/27 11:40:19;;;;;;;4.10;2.28;;;;;;;0.38;61.57;99553.84;5068042;28;20499;-39
2023/02/27 11:42:51;;;;;;;5.57;2.65;;;;;;;0.72;61.28;99617.09;5067108;28;20143;-36
2023/02/27 11:45:22;;;;;;;4.20;2.30;;;;;;;0.64;60.88;99623.00;5067074;28;20396;-39
2023/02/27 11:47:50;;;;;;;5.60;3.05;;;;;;;0.63;60.62;99619.59;5065654;28;20032;-36
2023/02/27 11:50:31;;;;;;;4.88;2.65;;;;;;;0.63;60.22;99631.56;5066926;28;20044;-38
2023/02/27 11:53:15;;;;;;;4.82;2.33;;;;;;;0.24;59.80;99564.03;5063755;28;20087;-37
2023/02/27 11:55:41;;;;;;;4.13;2.33;;;;;;;0.59;59.20;99628.13;5066901;28;20032;-38
2023/02/27 11:58:13;;;;;;;3.85;2.25;;;;;;;0.56;58.88;99622.13;5049892;28;20049;-37
2023/02/27 12:00:44;;;;;;;4.72;2.72;;;;;;;0.75;59.21;99624.78;5065419;28;20036;-37
2023/02/27 12:03:34;;;;;;;4.53;2.33;;;;;;;0.98;58.49;99624.88;5049734;28;20446;-36